sensor_id;sensor_type;location;lat;lon;timestamp;P1;durP1;ratioP1;P2;durP2;ratioP2
20443;SDS011;10381;53.730;10.010;2023-03-01T00:01:30;89.63;;;68.85;;
20443;SDS011;10381;53.730;10.010;2023-03-01T00:05:30;96.57;;;69.00;;
20443;SDS011;10381;53.730;10.010;2023-03-01T00:09:32;89.32;;;68.95;;
20443;SDS011;10381;53.730;10.010;2023-03-01T00:13:32;88.07;;;66.35;;
20443;SDS011;10381;53.730;10.010;2023-03-01T00:17:33;84.10;;;64.75;;
20443;SDS011;10381;53.730;10.010;2023-03-01T00:21:33;89.57;;;65.35;;
20443;SDS011;10381;53.730;10.010;2023-03-01T00:25:40;89.80;;;64.57;;
20443;SDS011;10381;53.730;10.010;2023-03-01T00:29:41;85.15;;;61.70;;
20443;SDS011;10381;53.730;10.010;2023-03-01T00:33:42;80.50;;;61.17;;
20443;SDS011;10381;53.730;10.010;2023-03-01T00:37:43;84.57;;;59.10;;
20443;SDS011;10381;53.730;10.010;2023-03-01T00:41:43;79.30;;;62.65;;
20443;SDS011;10381;53.730;10.010;2023-03-01T00:45:44;86.28;;;64.18;;
20443;SDS011;10381;53.730;10.010;2023-03-01T00:49:44;85.77;;;63.43;;
20443;SDS011;10381;53.730;10.010;2023-03-01T00:53:45;87.30;;;64.70;;
20443;SDS011;10381;53.730;10.010;2023-03-01T00:57:46;85.47;;;63.05;;
20443;SDS011;10381;53.730;10.010;2023-03-01T01:01:46;86.37;;;61.93;;
20443;SDS011;10381;53.730;10.010;2023-03-01T01:05:46;84.93;;;62.70;;
20443;SDS011;10381;53.730;10.010;2023-03-01T01:09:47;89.13;;;66.57;;
20443;SDS011;10381;53.730;10.010;2023-03-01T01:13:47;88.30;;;64.78;;
20443;SDS011;10381;53.730;10.010;2023-03-01T01:17:48;84.85;;;65.65;;
20443;SDS011;10381;53.730;10.010;2023-03-01T01:21:48;89.63;;;64.67;;
20443;SDS011;10381;53.730;10.010;2023-03-01T01:25:49;78.47;;;61.83;;
20443;SDS011;10381;53.730;10.010;2023-03-01T01:29:49;83.13;;;63.57;;
20443;SDS011;10381;53.730;10.010;2023-03-01T01:33:50;84.90;;;67.28;;
20443;SDS011;10381;53.730;10.010;2023-03-01T01:37:51;83.07;;;64.25;;
20443;SDS011;10381;53.730;10.010;2023-03-01T01:41:51;78.07;;;61.40;;
20443;SDS011;10381;53.730;10.010;2023-03-01T01:45:53;75.03;;;63.47;;
20443;SDS011;10381;53.730;10.010;2023-03-01T01:49:56;84.63;;;66.28;;
20443;SDS011;10381;53.730;10.010;2023-03-01T01:53:58;79.43;;;62.53;;
20443;SDS011;10381;53.730;10.010;2023-03-01T01:58:02;85.20;;;63.30;;
20443;SDS011;10381;53.730;10.010;2023-03-01T02:02:05;78.05;;;62.55;;
20443;SDS011;10381;53.730;10.010;2023-03-01T02:10:19;82.75;;;62.83;;
20443;SDS011;10381;53.730;10.010;2023-03-01T02:14:21;76.20;;;60.90;;
20443;SDS011;10381;53.730;10.010;2023-03-01T02:18:21;88.03;;;65.33;;
20443;SDS011;10381;53.730;10.010;2023-03-01T02:22:25;87.97;;;64.47;;
20443;SDS011;10381;53.730;10.010;2023-03-01T02:26:34;90.63;;;64.88;;
20443;SDS011;10381;53.730;10.010;2023-03-01T02:30:41;86.25;;;61.53;;
20443;SDS011;10381;53.730;10.010;2023-03-01T02:35:02;77.25;;;63.50;;
20443;SDS011;10381;53.730;10.010;2023-03-01T02:39:07;82.55;;;63.42;;
20443;SDS011;10381;53.730;10.010;2023-03-01T02:43:14;80.80;;;61.55;;
20443;SDS011;10381;53.730;10.010;2023-03-01T02:47:15;83.35;;;63.10;;
20443;SDS011;10381;53.730;10.010;2023-03-01T02:51:24;81.45;;;62.58;;
20443;SDS011;10381;53.730;10.010;2023-03-01T02:55:34;88.53;;;60.30;;
20443;SDS011;10381;53.730;10.010;2023-03-01T02:59:35;89.70;;;65.88;;
20443;SDS011;10381;53.730;10.010;2023-03-01T03:03:39;87.38;;;62.70;;
20443;SDS011;10381;53.730;10.010;2023-03-01T03:07:40;82.03;;;60.60;;
20443;SDS011;10381;53.730;10.010;2023-03-01T03:11:42;78.10;;;60.08;;
20443;SDS011;10381;53.730;10.010;2023-03-01T03:15:43;82.72;;;59.42;;
20443;SDS011;10381;53.730;10.010;2023-03-01T03:19:43;87.15;;;59.65;;
20443;SDS011;10381;53.730;10.010;2023-03-01T03:23:45;88.80;;;59.97;;
20443;SDS011;10381;53.730;10.010;2023-03-01T03:27:46;90.50;;;62.30;;
20443;SDS011;10381;53.730;10.010;2023-03-01T03:31:47;99.53;;;63.38;;
20443;SDS011;10381;53.730;10.010;2023-03-01T03:35:48;98.60;;;63.03;;
20443;SDS011;10381;53.730;10.010;2023-03-01T03:39:49;96.13;;;63.65;;
20443;SDS011;10381;53.730;10.010;2023-03-01T03:43:49;83.23;;;60.30;;
20443;SDS011;10381;53.730;10.010;2023-03-01T03:47:50;85.07;;;59.65;;
20443;SDS011;10381;53.730;10.010;2023-03-01T03:51:50;94.67;;;60.30;;
20443;SDS011;10381;53.730;10.010;2023-03-01T03:55:50;92.43;;;60.10;;
20443;SDS011;10381;53.730;10.010;2023-03-01T03:59:51;85.63;;;57.35;;
20443;SDS011;10381;53.730;10.010;2023-03-01T04:03:51;85.27;;;59.23;;
20443;SDS011;10381;53.730;10.010;2023-03-01T04:07:54;83.60;;;59.90;;
20443;SDS011;10381;53.730;10.010;2023-03-01T04:12:01;84.38;;;61.97;;
20443;SDS011;10381;53.730;10.010;2023-03-01T04:16:01;93.97;;;62.77;;
20443;SDS011;10381;53.730;10.010;2023-03-01T04:20:01;88.47;;;63.57;;
20443;SDS011;10381;53.730;10.010;2023-03-01T04:24:05;82.22;;;61.83;;
20443;SDS011;10381;53.730;10.010;2023-03-01T04:28:07;95.72;;;62.00;;
20443;SDS011;10381;53.730;10.010;2023-03-01T04:32:08;89.18;;;61.97;;
20443;SDS011;10381;53.730;10.010;2023-03-01T04:36:09;80.95;;;61.10;;
20443;SDS011;10381;53.730;10.010;2023-03-01T04:40:11;91.05;;;61.85;;
20443;SDS011;10381;53.730;10.010;2023-03-01T04:44:16;86.65;;;61.22;;
20443;SDS011;10381;53.730;10.010;2023-03-01T04:48:16;78.00;;;58.77;;
20443;SDS011;10381;53.730;10.010;2023-03-01T04:52:16;85.73;;;60.73;;
20443;SDS011;10381;53.730;10.010;2023-03-01T04:56:17;88.50;;;61.50;;
20443;SDS011;10381;53.730;10.010;2023-03-01T05:00:18;80.03;;;58.55;;
20443;SDS011;10381;53.730;10.010;2023-03-01T05:04:21;81.80;;;59.30;;
20443;SDS011;10381;53.730;10.010;2023-03-01T05:08:22;92.20;;;61.03;;
20443;SDS011;10381;53.730;10.010;2023-03-01T05:12:22;79.03;;;59.80;;
20443;SDS011;10381;53.730;10.010;2023-03-01T05:16:23;85.25;;;57.15;;
20443;SDS011;10381;53.730;10.010;2023-03-01T05:20:23;91.13;;;60.22;;
20443;SDS011;10381;53.730;10.010;2023-03-01T05:24:24;82.68;;;60.17;;
20443;SDS011;10381;53.730;10.010;2023-03-01T05:28:24;92.05;;;60.22;;
20443;SDS011;10381;53.730;10.010;2023-03-01T05:32:25;86.88;;;58.47;;
20443;SDS011;10381;53.730;10.010;2023-03-01T05:36:25;79.72;;;56.92;;
20443;SDS011;10381;53.730;10.010;2023-03-01T05:40:26;78.03;;;56.72;;
20443;SDS011;10381;53.730;10.010;2023-03-01T05:44:27;88.57;;;59.22;;
20443;SDS011;10381;53.730;10.010;2023-03-01T05:48:28;86.78;;;59.85;;
20443;SDS011;10381;53.730;10.010;2023-03-01T05:52:29;93.68;;;62.75;;
20443;SDS011;10381;53.730;10.010;2023-03-01T05:56:29;82.28;;;60.25;;
20443;SDS011;10381;53.730;10.010;2023-03-01T06:00:29;85.80;;;60.03;;
20443;SDS011;10381;53.730;10.010;2023-03-01T06:04:30;88.22;;;62.80;;
20443;SDS011;10381;53.730;10.010;2023-03-01T06:08:31;84.03;;;61.27;;
20443;SDS011;10381;53.730;10.010;2023-03-01T06:12:31;84.37;;;63.40;;
20443;SDS011;10381;53.730;10.010;2023-03-01T06:16:33;84.03;;;62.60;;
20443;SDS011;10381;53.730;10.010;2023-03-01T06:20:33;94.65;;;60.88;;
20443;SDS011;10381;53.730;10.010;2023-03-01T06:24:33;98.40;;;67.57;;
20443;SDS011;10381;53.730;10.010;2023-03-01T06:28:34;85.63;;;64.00;;
20443;SDS011;10381;53.730;10.010;2023-03-01T06:32:36;83.32;;;59.33;;
20443;SDS011;10381;53.730;10.010;2023-03-01T06:36:37;92.60;;;62.42;;
20443;SDS011;10381;53.730;10.010;2023-03-01T06:40:37;94.63;;;63.63;;
20443;SDS011;10381;53.730;10.010;2023-03-01T06:44:37;92.73;;;60.20;;
20443;SDS011;10381;53.730;10.010;2023-03-01T06:48:38;78.60;;;58.15;;
20443;SDS011;10381;53.730;10.010;2023-03-01T06:52:38;78.97;;;55.93;;
20443;SDS011;10381;53.730;10.010;2023-03-01T06:56:39;85.65;;;58.65;;
20443;SDS011;10381;53.730;10.010;2023-03-01T07:00:39;86.00;;;58.85;;
20443;SDS011;10381;53.730;10.010;2023-03-01T07:04:40;78.43;;;55.97;;
20443;SDS011;10381;53.730;10.010;2023-03-01T07:08:41;76.18;;;54.13;;
20443;SDS011;10381;53.730;10.010;2023-03-01T07:12:41;85.00;;;52.87;;
20443;SDS011;10381;53.730;10.010;2023-03-01T07:16:41;80.37;;;55.17;;
20443;SDS011;10381;53.730;10.010;2023-03-01T07:20:42;78.68;;;56.10;;
20443;SDS011;10381;53.730;10.010;2023-03-01T07:24:42;95.43;;;52.93;;
20443;SDS011;10381;53.730;10.010;2023-03-01T07:28:43;89.55;;;55.40;;
20443;SDS011;10381;53.730;10.010;2023-03-01T07:32:43;93.03;;;53.30;;
20443;SDS011;10381;53.730;10.010;2023-03-01T07:36:45;85.05;;;53.20;;
20443;SDS011;10381;53.730;10.010;2023-03-01T07:40:45;88.88;;;53.05;;
20443;SDS011;10381;53.730;10.010;2023-03-01T07:44:45;80.20;;;53.80;;
20443;SDS011;10381;53.730;10.010;2023-03-01T07:48:46;86.97;;;52.53;;
20443;SDS011;10381;53.730;10.010;2023-03-01T07:52:47;82.90;;;50.95;;
20443;SDS011;10381;53.730;10.010;2023-03-01T07:56:48;72.53;;;50.50;;
20443;SDS011;10381;53.730;10.010;2023-03-01T08:00:48;81.22;;;53.70;;
20443;SDS011;10381;53.730;10.010;2023-03-01T08:04:48;85.30;;;55.50;;
20443;SDS011;10381;53.730;10.010;2023-03-01T08:08:48;93.03;;;58.30;;
20443;SDS011;10381;53.730;10.010;2023-03-01T08:12:51;85.67;;;57.47;;
20443;SDS011;10381;53.730;10.010;2023-03-01T08:16:52;88.00;;;58.65;;
20443;SDS011;10381;53.730;10.010;2023-03-01T08:20:52;83.43;;;56.50;;
20443;SDS011;10381;53.730;10.010;2023-03-01T08:24:53;94.77;;;57.33;;
20443;SDS011;10381;53.730;10.010;2023-03-01T08:28:54;104.18;;;58.10;;
20443;SDS011;10381;53.730;10.010;2023-03-01T08:32:55;84.78;;;53.53;;
20443;SDS011;10381;53.730;10.010;2023-03-01T08:36:55;75.47;;;46.38;;
20443;SDS011;10381;53.730;10.010;2023-03-01T08:40:58;75.50;;;47.33;;
20443;SDS011;10381;53.730;10.010;2023-03-01T08:44:59;74.70;;;48.03;;
20443;SDS011;10381;53.730;10.010;2023-03-01T08:48:59;79.03;;;45.60;;
20443;SDS011;10381;53.730;10.010;2023-03-01T08:53:00;78.10;;;48.30;;
20443;SDS011;10381;53.730;10.010;2023-03-01T08:57:03;60.63;;;43.27;;
20443;SDS011;10381;53.730;10.010;2023-03-01T09:01:07;57.03;;;38.83;;
20443;SDS011;10381;53.730;10.010;2023-03-01T09:05:08;63.17;;;40.42;;
20443;SDS011;10381;53.730;10.010;2023-03-01T09:09:13;72.20;;;40.63;;
20443;SDS011;10381;53.730;10.010;2023-03-01T09:13:15;62.45;;;37.75;;
20443;SDS011;10381;53.730;10.010;2023-03-01T09:17:16;71.60;;;37.17;;
20443;SDS011;10381;53.730;10.010;2023-03-01T09:21:16;63.25;;;35.70;;
20443;SDS011;10381;53.730;10.010;2023-03-01T09:25:17;57.25;;;36.35;;
20443;SDS011;10381;53.730;10.010;2023-03-01T09:29:18;50.50;;;35.47;;
20443;SDS011;10381;53.730;10.010;2023-03-01T09:33:18;54.72;;;35.25;;
20443;SDS011;10381;53.730;10.010;2023-03-01T09:37:18;55.73;;;34.73;;
20443;SDS011;10381;53.730;10.010;2023-03-01T09:45:30;53.10;;;30.15;;
20443;SDS011;10381;53.730;10.010;2023-03-01T09:49:34;47.63;;;29.77;;
20443;SDS011;10381;53.730;10.010;2023-03-01T09:53:36;60.40;;;31.30;;
20443;SDS011;10381;53.730;10.010;2023-03-01T10:01:56;51.78;;;30.23;;
20443;SDS011;10381;53.730;10.010;2023-03-01T10:06:04;50.58;;;31.40;;
20443;SDS011;10381;53.730;10.010;2023-03-01T10:10:16;44.95;;;28.25;;
20443;SDS011;10381;53.730;10.010;2023-03-01T10:18:37;46.63;;;28.77;;
20443;SDS011;10381;53.730;10.010;2023-03-01T10:22:40;51.13;;;28.00;;
20443;SDS011;10381;53.730;10.010;2023-03-01T10:26:48;44.47;;;27.13;;
20443;SDS011;10381;53.730;10.010;2023-03-01T10:30:59;49.78;;;27.75;;
20443;SDS011;10381;53.730;10.010;2023-03-01T10:34:59;54.75;;;26.95;;
20443;SDS011;10381;53.730;10.010;2023-03-01T10:39:00;38.73;;;25.73;;
20443;SDS011;10381;53.730;10.010;2023-03-01T10:43:11;43.15;;;26.02;;
20443;SDS011;10381;53.730;10.010;2023-03-01T10:51:20;38.30;;;24.67;;
20443;SDS011;10381;53.730;10.010;2023-03-01T10:55:33;45.42;;;26.75;;
20443;SDS011;10381;53.730;10.010;2023-03-01T10:59:37;39.58;;;24.90;;
20443;SDS011;10381;53.730;10.010;2023-03-01T11:03:38;38.33;;;23.92;;
20443;SDS011;10381;53.730;10.010;2023-03-01T11:07:52;38.78;;;26.63;;
20443;SDS011;10381;53.730;10.010;2023-03-01T11:11:55;38.33;;;25.50;;
20443;SDS011;10381;53.730;10.010;2023-03-01T11:16:04;35.83;;;23.83;;
20443;SDS011;10381;53.730;10.010;2023-03-01T11:24:13;36.47;;;22.80;;
20443;SDS011;10381;53.730;10.010;2023-03-01T11:28:15;39.47;;;24.27;;
20443;SDS011;10381;53.730;10.010;2023-03-01T11:32:18;35.95;;;22.77;;
20443;SDS011;10381;53.730;10.010;2023-03-01T11:36:41;35.30;;;22.00;;
20443;SDS011;10381;53.730;10.010;2023-03-01T11:40:50;31.88;;;21.52;;
20443;SDS011;10381;53.730;10.010;2023-03-01T11:44:59;29.38;;;22.00;;
20443;SDS011;10381;53.730;10.010;2023-03-01T12:02:48;25.38;;;19.02;;
20443;SDS011;10381;53.730;10.010;2023-03-01T12:07:30;36.22;;;19.40;;
20443;SDS011;10381;53.730;10.010;2023-03-01T12:11:53;33.20;;;21.75;;
20443;SDS011;10381;53.730;10.010;2023-03-01T12:20:35;35.80;;;21.13;;
20443;SDS011;10381;53.730;10.010;2023-03-01T12:29:24;29.17;;;20.35;;
20443;SDS011;10381;53.730;10.010;2023-03-01T12:33:32;28.67;;;19.77;;
20443;SDS011;10381;53.730;10.010;2023-03-01T12:42:31;21.00;;;16.88;;
20443;SDS011;10381;53.730;10.010;2023-03-01T12:51:12;27.33;;;18.67;;
20443;SDS011;10381;53.730;10.010;2023-03-01T12:55:29;23.20;;;17.50;;
20443;SDS011;10381;53.730;10.010;2023-03-01T12:59:38;20.67;;;17.92;;
20443;SDS011;10381;53.730;10.010;2023-03-01T13:08:11;21.83;;;17.35;;
20443;SDS011;10381;53.730;10.010;2023-03-01T13:16:47;23.33;;;18.45;;
20443;SDS011;10381;53.730;10.010;2023-03-01T13:20:49;22.50;;;17.92;;
20443;SDS011;10381;53.730;10.010;2023-03-01T13:24:57;23.13;;;17.85;;
20443;SDS011;10381;53.730;10.010;2023-03-01T13:29:02;32.03;;;20.10;;
20443;SDS011;10381;53.730;10.010;2023-03-01T13:37:28;26.40;;;19.00;;
20443;SDS011;10381;53.730;10.010;2023-03-01T13:45:51;24.80;;;18.33;;
20443;SDS011;10381;53.730;10.010;2023-03-01T13:50:02;24.52;;;19.35;;
20443;SDS011;10381;53.730;10.010;2023-03-01T13:54:03;25.58;;;19.60;;
20443;SDS011;10381;53.730;10.010;2023-03-01T13:58:12;40.97;;;20.67;;
20443;SDS011;10381;53.730;10.010;2023-03-01T14:02:16;28.92;;;20.73;;
20443;SDS011;10381;53.730;10.010;2023-03-01T14:06:20;26.33;;;20.40;;
20443;SDS011;10381;53.730;10.010;2023-03-01T14:10:21;28.27;;;21.80;;
20443;SDS011;10381;53.730;10.010;2023-03-01T14:14:45;33.22;;;20.52;;
20443;SDS011;10381;53.730;10.010;2023-03-01T14:19:13;30.48;;;20.35;;
20443;SDS011;10381;53.730;10.010;2023-03-01T14:23:20;32.15;;;21.85;;
20443;SDS011;10381;53.730;10.010;2023-03-01T14:27:23;27.38;;;20.08;;
20443;SDS011;10381;53.730;10.010;2023-03-01T14:31:37;26.13;;;19.58;;
20443;SDS011;10381;53.730;10.010;2023-03-01T14:35:38;19.77;;;17.65;;
20443;SDS011;10381;53.730;10.010;2023-03-01T14:39:38;27.40;;;19.57;;
20443;SDS011;10381;53.730;10.010;2023-03-01T14:43:40;22.37;;;18.87;;
20443;SDS011;10381;53.730;10.010;2023-03-01T14:47:44;23.63;;;17.85;;
20443;SDS011;10381;53.730;10.010;2023-03-01T14:51:48;19.90;;;17.42;;
20443;SDS011;10381;53.730;10.010;2023-03-01T14:55:59;23.42;;;18.52;;
20443;SDS011;10381;53.730;10.010;2023-03-01T15:00:05;23.77;;;17.95;;
20443;SDS011;10381;53.730;10.010;2023-03-01T15:04:20;23.40;;;18.50;;
20443;SDS011;10381;53.730;10.010;2023-03-01T15:08:23;22.30;;;18.48;;
20443;SDS011;10381;53.730;10.010;2023-03-01T15:16:32;24.48;;;17.98;;
20443;SDS011;10381;53.730;10.010;2023-03-01T15:20:33;32.15;;;18.27;;
20443;SDS011;10381;53.730;10.010;2023-03-01T15:24:35;24.45;;;17.92;;
20443;SDS011;10381;53.730;10.010;2023-03-01T15:28:42;28.27;;;19.75;;
20443;SDS011;10381;53.730;10.010;2023-03-01T15:37:40;21.88;;;16.92;;
20443;SDS011;10381;53.730;10.010;2023-03-01T15:41:47;23.15;;;18.30;;
20443;SDS011;10381;53.730;10.010;2023-03-01T15:45:55;25.25;;;18.10;;
20443;SDS011;10381;53.730;10.010;2023-03-01T15:49:57;25.42;;;18.50;;
20443;SDS011;10381;53.730;10.010;2023-03-01T15:54:00;27.60;;;19.00;;
20443;SDS011;10381;53.730;10.010;2023-03-01T15:58:12;21.58;;;17.70;;
20443;SDS011;10381;53.730;10.010;2023-03-01T16:02:14;25.33;;;18.73;;
20443;SDS011;10381;53.730;10.010;2023-03-01T16:06:14;22.92;;;18.63;;
20443;SDS011;10381;53.730;10.010;2023-03-01T16:10:15;31.47;;;18.83;;
20443;SDS011;10381;53.730;10.010;2023-03-01T16:14:15;26.67;;;19.10;;
20443;SDS011;10381;53.730;10.010;2023-03-01T16:18:16;27.75;;;20.05;;
20443;SDS011;10381;53.730;10.010;2023-03-01T16:22:16;33.23;;;21.63;;
20443;SDS011;10381;53.730;10.010;2023-03-01T16:26:17;31.55;;;21.98;;
20443;SDS011;10381;53.730;10.010;2023-03-01T16:30:19;33.75;;;22.75;;
20443;SDS011;10381;53.730;10.010;2023-03-01T16:34:21;31.38;;;23.75;;
20443;SDS011;10381;53.730;10.010;2023-03-01T16:38:21;35.67;;;24.73;;
20443;SDS011;10381;53.730;10.010;2023-03-01T16:42:22;31.15;;;23.73;;
20443;SDS011;10381;53.730;10.010;2023-03-01T16:46:23;32.40;;;24.80;;
20443;SDS011;10381;53.730;10.010;2023-03-01T16:50:28;30.23;;;26.23;;
20443;SDS011;10381;53.730;10.010;2023-03-01T16:54:28;37.75;;;30.05;;
20443;SDS011;10381;53.730;10.010;2023-03-01T16:58:28;31.87;;;28.50;;
20443;SDS011;10381;53.730;10.010;2023-03-01T17:02:29;35.33;;;30.90;;
20443;SDS011;10381;53.730;10.010;2023-03-01T17:06:29;36.73;;;32.83;;
20443;SDS011;10381;53.730;10.010;2023-03-01T17:10:29;43.43;;;37.40;;
20443;SDS011;10381;53.730;10.010;2023-03-01T17:14:29;47.07;;;39.83;;
20443;SDS011;10381;53.730;10.010;2023-03-01T17:18:30;52.55;;;45.13;;
20443;SDS011;10381;53.730;10.010;2023-03-01T17:22:31;56.25;;;46.97;;
20443;SDS011;10381;53.730;10.010;2023-03-01T17:26:31;54.67;;;47.60;;
20443;SDS011;10381;53.730;10.010;2023-03-01T17:30:31;69.73;;;51.03;;
20443;SDS011;10381;53.730;10.010;2023-03-01T17:34:32;62.87;;;52.00;;
20443;SDS011;10381;53.730;10.010;2023-03-01T17:38:33;60.97;;;51.40;;
20443;SDS011;10381;53.730;10.010;2023-03-01T17:42:36;75.95;;;60.47;;
20443;SDS011;10381;53.730;10.010;2023-03-01T17:46:36;84.70;;;69.30;;
20443;SDS011;10381;53.730;10.010;2023-03-01T17:50:37;106.68;;;73.72;;
20443;SDS011;10381;53.730;10.010;2023-03-01T17:54:39;85.40;;;75.75;;
20443;SDS011;10381;53.730;10.010;2023-03-01T17:58:39;97.40;;;78.65;;
20443;SDS011;10381;53.730;10.010;2023-03-01T18:02:40;95.10;;;77.33;;
20443;SDS011;10381;53.730;10.010;2023-03-01T18:06:40;96.25;;;75.82;;
20443;SDS011;10381;53.730;10.010;2023-03-01T18:10:41;84.90;;;74.53;;
20443;SDS011;10381;53.730;10.010;2023-03-01T18:14:41;100.87;;;76.73;;
20443;SDS011;10381;53.730;10.010;2023-03-01T18:18:41;104.20;;;78.03;;
20443;SDS011;10381;53.730;10.010;2023-03-01T18:22:44;117.03;;;89.53;;
20443;SDS011;10381;53.730;10.010;2023-03-01T18:26:44;135.98;;;92.35;;
20443;SDS011;10381;53.730;10.010;2023-03-01T18:30:44;123.57;;;95.60;;
20443;SDS011;10381;53.730;10.010;2023-03-01T18:34:45;111.70;;;98.47;;
20443;SDS011;10381;53.730;10.010;2023-03-01T18:38:45;110.97;;;98.10;;
20443;SDS011;10381;53.730;10.010;2023-03-01T18:42:46;113.60;;;99.80;;
20443;SDS011;10381;53.730;10.010;2023-03-01T18:46:46;143.13;;;103.83;;
20443;SDS011;10381;53.730;10.010;2023-03-01T18:50:47;119.00;;;99.35;;
20443;SDS011;10381;53.730;10.010;2023-03-01T18:54:47;108.53;;;96.77;;
20443;SDS011;10381;53.730;10.010;2023-03-01T18:58:48;144.17;;;99.77;;
20443;SDS011;10381;53.730;10.010;2023-03-01T19:02:48;120.47;;;93.40;;
20443;SDS011;10381;53.730;10.010;2023-03-01T19:06:48;113.27;;;91.47;;
20443;SDS011;10381;53.730;10.010;2023-03-01T19:10:59;131.00;;;95.80;;
20443;SDS011;10381;53.730;10.010;2023-03-01T19:15:04;128.35;;;91.45;;
20443;SDS011;10381;53.730;10.010;2023-03-01T19:19:05;145.95;;;99.97;;
20443;SDS011;10381;53.730;10.010;2023-03-01T19:23:07;114.22;;;94.20;;
20443;SDS011;10381;53.730;10.010;2023-03-01T19:27:07;123.77;;;97.17;;
20443;SDS011;10381;53.730;10.010;2023-03-01T19:31:08;129.18;;;91.38;;
20443;SDS011;10381;53.730;10.010;2023-03-01T19:35:11;107.78;;;90.70;;
20443;SDS011;10381;53.730;10.010;2023-03-01T19:39:11;111.33;;;88.60;;
20443;SDS011;10381;53.730;10.010;2023-03-01T19:43:12;117.75;;;85.80;;
20443;SDS011;10381;53.730;10.010;2023-03-01T19:47:13;146.57;;;84.20;;
20443;SDS011;10381;53.730;10.010;2023-03-01T19:51:13;124.93;;;89.95;;
20443;SDS011;10381;53.730;10.010;2023-03-01T19:55:14;152.63;;;86.60;;
20443;SDS011;10381;53.730;10.010;2023-03-01T19:59:14;155.57;;;92.95;;
20443;SDS011;10381;53.730;10.010;2023-03-01T20:03:15;113.68;;;92.88;;
20443;SDS011;10381;53.730;10.010;2023-03-01T20:07:16;191.40;;;93.17;;
20443;SDS011;10381;53.730;10.010;2023-03-01T20:11:17;164.52;;;97.07;;
20443;SDS011;10381;53.730;10.010;2023-03-01T20:15:18;176.50;;;97.60;;
20443;SDS011;10381;53.730;10.010;2023-03-01T20:19:19;181.98;;;103.65;;
20443;SDS011;10381;53.730;10.010;2023-03-01T20:23:20;168.43;;;103.40;;
20443;SDS011;10381;53.730;10.010;2023-03-01T20:27:21;189.13;;;109.95;;
20443;SDS011;10381;53.730;10.010;2023-03-01T20:31:22;216.02;;;115.95;;
20443;SDS011;10381;53.730;10.010;2023-03-01T20:35:27;246.85;;;132.02;;
20443;SDS011;10381;53.730;10.010;2023-03-01T20:39:31;210.95;;;136.55;;
20443;SDS011;10381;53.730;10.010;2023-03-01T20:43:32;277.23;;;153.38;;
20443;SDS011;10381;53.730;10.010;2023-03-01T20:47:33;253.68;;;173.40;;
20443;SDS011;10381;53.730;10.010;2023-03-01T20:51:33;301.48;;;196.88;;
20443;SDS011;10381;53.730;10.010;2023-03-01T20:55:33;277.65;;;208.07;;
20443;SDS011;10381;53.730;10.010;2023-03-01T20:59:33;279.37;;;232.93;;
20443;SDS011;10381;53.730;10.010;2023-03-01T21:03:34;275.97;;;246.43;;
20443;SDS011;10381;53.730;10.010;2023-03-01T21:07:35;358.05;;;255.10;;
20443;SDS011;10381;53.730;10.010;2023-03-01T21:11:35;333.13;;;279.37;;
20443;SDS011;10381;53.730;10.010;2023-03-01T21:15:36;338.20;;;290.52;;
20443;SDS011;10381;53.730;10.010;2023-03-01T21:19:40;320.45;;;286.05;;
20443;SDS011;10381;53.730;10.010;2023-03-01T21:23:42;328.23;;;293.75;;
20443;SDS011;10381;53.730;10.010;2023-03-01T21:27:43;332.00;;;289.23;;
20443;SDS011;10381;53.730;10.010;2023-03-01T21:31:43;343.23;;;300.75;;
20443;SDS011;10381;53.730;10.010;2023-03-01T21:35:44;375.63;;;324.33;;
20443;SDS011;10381;53.730;10.010;2023-03-01T21:39:44;385.10;;;345.02;;
20443;SDS011;10381;53.730;10.010;2023-03-01T21:43:45;363.43;;;324.27;;
20443;SDS011;10381;53.730;10.010;2023-03-01T21:47:47;382.15;;;328.33;;
20443;SDS011;10381;53.730;10.010;2023-03-01T21:51:47;364.43;;;326.57;;
20443;SDS011;10381;53.730;10.010;2023-03-01T21:55:48;375.02;;;335.55;;
20443;SDS011;10381;53.730;10.010;2023-03-01T21:59:50;383.02;;;342.75;;
20443;SDS011;10381;53.730;10.010;2023-03-01T22:03:50;391.02;;;349.67;;
20443;SDS011;10381;53.730;10.010;2023-03-01T22:07:51;376.92;;;336.13;;
20443;SDS011;10381;53.730;10.010;2023-03-01T22:11:52;389.00;;;347.30;;
20443;SDS011;10381;53.730;10.010;2023-03-01T22:16:01;389.67;;;347.50;;
20443;SDS011;10381;53.730;10.010;2023-03-01T22:20:01;373.00;;;330.60;;
20443;SDS011;10381;53.730;10.010;2023-03-01T22:24:02;377.42;;;335.23;;
20443;SDS011;10381;53.730;10.010;2023-03-01T22:28:03;374.73;;;335.33;;
20443;SDS011;10381;53.730;10.010;2023-03-01T22:32:03;380.08;;;339.85;;
20443;SDS011;10381;53.730;10.010;2023-03-01T22:36:04;394.83;;;352.48;;
20443;SDS011;10381;53.730;10.010;2023-03-01T22:40:05;427.92;;;364.42;;
20443;SDS011;10381;53.730;10.010;2023-03-01T22:44:07;422.35;;;376.08;;
20443;SDS011;10381;53.730;10.010;2023-03-01T22:48:07;452.60;;;384.70;;
20443;SDS011;10381;53.730;10.010;2023-03-01T22:52:08;414.10;;;372.03;;
20443;SDS011;10381;53.730;10.010;2023-03-01T22:56:15;429.23;;;386.30;;
20443;SDS011;10381;53.730;10.010;2023-03-01T23:00:19;424.35;;;379.13;;
20443;SDS011;10381;53.730;10.010;2023-03-01T23:04:20;432.48;;;386.33;;
20443;SDS011;10381;53.730;10.010;2023-03-01T23:08:21;445.88;;;399.70;;
20443;SDS011;10381;53.730;10.010;2023-03-01T23:12:22;462.55;;;407.00;;
20443;SDS011;10381;53.730;10.010;2023-03-01T23:16:22;453.60;;;405.70;;
20443;SDS011;10381;53.730;10.010;2023-03-01T23:20:24;474.98;;;425.90;;
20443;SDS011;10381;53.730;10.010;2023-03-01T23:24:25;523.50;;;468.60;;
20443;SDS011;10381;53.730;10.010;2023-03-01T23:28:30;527.90;;;471.45;;
20443;SDS011;10381;53.730;10.010;2023-03-01T23:32:30;538.88;;;482.45;;
20443;SDS011;10381;53.730;10.010;2023-03-01T23:36:31;548.72;;;493.10;;
20443;SDS011;10381;53.730;10.010;2023-03-01T23:40:32;544.10;;;487.08;;
20443;SDS011;10381;53.730;10.010;2023-03-01T23:44:33;552.37;;;493.17;;
20443;SDS011;10381;53.730;10.010;2023-03-01T23:48:33;564.97;;;506.45;;
20443;SDS011;10381;53.730;10.010;2023-03-01T23:52:35;570.60;;;508.40;;
20443;SDS011;10381;53.730;10.010;2023-03-01T23:56:38;581.65;;;519.90;;
